Asteria — WDE5489 — position and weather

sailwx.info

Track history (hours):
 
Tides and Currents Weather Stations Pressure Air Temp Water Temp Dewpoint Dewpoint Depression Visibility Wind Speed Wind Dir Waves Ship Positions

Asteria

Owner: Boston HarborCruises, Boston, MA. More information available from US FCC via Universal Licensing System and Coast Guard Vessel Documentation Center.

Last reported at 2017-Oct-18 16:29 UTC. Time now 2017-Oct-18 16:57 UTC.
Position N 42°19' W 070°51'.

Length 33 m; draft 2 m.

Type: High speed craft. MMSI: 367367470.

Date/timePositionNaut miles runAvg speedWind from/ knotsBaromVisibWave heightAir tempDewpointWater temp
2017-Oct-18 16:29N 42°19' W 070°51'919.4
2017-Oct-18 16:00N 42°22' W 071°03'0 0.0
2017-Oct-18 15:30N 42°22' W 071°03'0 0.0
2017-Oct-18 15:00N 42°22' W 071°03'0 0.5
2017-Oct-18 14:01N 42°21' W 071°02'611.2
2017-Oct-18 13:31N 42°17' W 070°57'2 4.6
2017-Oct-18 12:59N 42°15' W 070°55'817.4
2017-Oct-18 12:30N 42°21' W 071°03'611.1
2017-Oct-18 12:01N 42°17' W 070°58'3 4.7
2017-Oct-18 11:25N 42°15' W 070°55'615.7
2017-Oct-18 11:00N 42°20' W 071°00'2 4.0
2017-Oct-18 10:30N 42°21' W 071°03'810.0
2017-Oct-18 09:41N 42°15' W 070°55'0 0.0
2017-Oct-18 00:07N 42°15' W 070°55'0 0.2
2017-Oct-17 23:58N 42°15' W 070°55'818.2
2017-Oct-17 23:30N 42°21' W 071°03'2 4.2
2017-Oct-17 23:00N 42°20' W 071°00'612.3
2017-Oct-17 22:30N 42°15' W 070°55'816.9
2017-Oct-17 22:00N 42°21' W 071°03'2 4.9
2017-Oct-17 21:30N 42°20' W 071°00'611.8
2017-Oct-17 21:01N 42°16' W 070°55'816.3
2017-Oct-17 20:30N 42°21' W 071°03'1 1.7
2017-Oct-17 20:00N 42°22' W 071°03'1 1.4
2017-Oct-17 19:31N 42°22' W 071°03'0 0.4
2017-Oct-17 19:01N 42°21' W 071°03'8 8.4
2017-Oct-17 18:02N 42°15' W 070°55'0 6.0
2017-Oct-17 18:00N 42°15' W 070°55'816.7
2017-Oct-17 17:31N 42°21' W 071°03'0 0.0
2017-Oct-17 17:00N 42°21' W 071°03'0 0.5
2017-Oct-17 16:30N 42°22' W 071°03'2 3.4
2017-Oct-17 16:00N 42°21' W 071°01'2 3.4
2017-Oct-17 15:30N 42°22' W 071°03'0 0.0
2017-Oct-17 15:00N 42°22' W 071°03'0 0.0
2017-Oct-17 14:30N 42°22' W 071°03'0 0.0
2017-Oct-17 14:00N 42°22' W 071°03'0 0.0
2017-Oct-17 13:30N 42°22' W 071°03'1 1.3
2017-Oct-17 13:00N 42°22' W 071°02'0 0.6
2017-Oct-17 12:31N 42°21' W 071°02'811.5
2017-Oct-17 11:48N 42°15' W 070°55'515.9
2017-Oct-17 11:31N 42°19' W 070°59'3 6.6
2017-Oct-17 11:01N 42°21' W 071°02'8 9.7
2017-Oct-17 10:11N 42°15' W 070°55'0 0.1
2017-Oct-17 10:00N 42°15' W 070°55'0 0.0
2017-Oct-17 09:31N 42°15' W 070°55'0 0.0
2017-Oct-17 00:56N 42°16' W 070°55'818.5
2017-Oct-17 00:30N 42°21' W 071°03'2 4.2
2017-Oct-17 00:00N 42°20' W 071°00'612.8
2017-Oct-16 23:30N 42°15' W 070°55'816.8
2017-Oct-16 23:00N 42°21' W 071°03'2 4.4
2017-Oct-16 22:30N 42°20' W 071°00'612.2
2017-Oct-16 21:59N 42°15' W 070°55'613.6
2017-Oct-16 21:31N 42°20' W 071°01'2 3.7
2017-Oct-16 21:01N 42°21' W 071°03'3 5.9
2017-Oct-16 20:30N 42°19' W 070°60'510.2
2017-Oct-16 19:59N 42°15' W 070°55'817.4
2017-Oct-16 19:31N 42°21' W 071°03'1 1.8
2017-Oct-16 19:00N 42°22' W 071°03'1 1.6
2017-Oct-16 18:31N 42°21' W 071°03'0 0.5
2017-Oct-16 18:00N 42°22' W 071°03'0 0.0
2017-Oct-16 17:30N 42°22' W 071°03'1 1.1
2017-Oct-16 17:00N 42°22' W 071°02'1 1.1
2017-Oct-16 16:30N 42°22' W 071°03'1 1.3
2017-Oct-16 16:00N 42°22' W 071°02'0 0.9
2017-Oct-16 15:30N 42°21' W 071°03'813.8
2017-Oct-16 14:55N 42°15' W 070°55'0 0.4
2017-Oct-16 14:30N 42°15' W 070°55'3 3.5
2017-Oct-16 13:31N 42°18' W 070°58'4 6.6
2017-Oct-16 12:59N 42°15' W 070°55'817.7
2017-Oct-16 12:30N 42°21' W 071°03'612.4
2017-Oct-16 12:00N 42°17' W 070°57'2 4.3
2017-Oct-16 11:29N 42°15' W 070°55'612.0
2017-Oct-16 11:01N 42°20' W 070°60'3 5.0
2017-Oct-16 10:30N 42°21' W 071°03'813.6
2017-Oct-16 09:54N 42°15' W 070°55'0 0.1
2017-Oct-16 09:30N 42°15' W 070°55'1 0.1
2017-Oct-15 18:32N 42°16' W 070°56'130.1
2017-Oct-15 18:31N 42°17' W 070°56'714.1
2017-Oct-15 18:00N 42°22' W 071°03'4 8.7
2017-Oct-15 17:31N 42°20' W 070°57'1428.5
2017-Oct-15 17:00N 42°16' W 070°39'2 0.9
2017-Oct-15 14:53N 42°15' W 070°37'2023.1
2017-Oct-15 14:00N 42°22' W 071°03'0 0.1
2017-Oct-15 13:30N 42°22' W 071°03'0 0.0
2017-Oct-15 13:00N 42°22' W 071°03'2 4.5
2017-Oct-15 12:30N 42°20' W 071°00'612.7
2017-Oct-15 12:00N 42°15' W 070°55'0 0.0
2017-Oct-14 19:21N 42°15' W 070°55'618.8
2017-Oct-14 19:00N 42°20' W 071°01'2 4.2
2017-Oct-14 18:30N 42°22' W 071°03'0 0.2
2017-Oct-14 18:01N 42°22' W 071°03'612.0
2017-Oct-14 17:31N 42°19' W 070°55'1529.1
2017-Oct-14 16:59N 42°15' W 070°36'3 1.3
2017-Oct-14 15:01N 42°14' W 070°33'026.7
2017-Oct-14 15:00N 42°14' W 070°33'1428.7
2017-Oct-14 14:30N 42°19' W 070°51'918.8
2017-Oct-14 14:00N 42°22' W 071°03'0 0.0
2017-Oct-14 13:30N 42°22' W 071°03'0 0.0
2017-Oct-14 13:00N 42°22' W 071°03'1 1.3
2017-Oct-14 12:30N 42°22' W 071°02'5 9.3
2017-Oct-14 12:01N 42°18' W 070°58'4 7.2
2017-Oct-14 11:30N 42°15' W 070°55'0 0.0
2017-Oct-14 00:00N 42°15' W 070°55'815.0
2017-Oct-13 23:28N 42°21' W 071°03'3 7.4
2017-Oct-13 23:01N 42°19' W 070°60'5 9.6
2017-Oct-13 22:30N 42°16' W 070°55'816.0
2017-Oct-13 22:00N 42°21' W 071°03'611.5
2017-Oct-13 21:31N 42°17' W 070°57'2 4.8
2017-Oct-13 21:00N 42°16' W 070°55'816.1
2017-Oct-13 20:30N 42°21' W 071°03'0 0.4
2017-Oct-13 20:00N 42°22' W 071°03'918.6
2017-Oct-13 19:30N 42°19' W 070°51'1730.4
2017-Oct-13 18:58N 42°12' W 070°31'3 1.7
2017-Oct-13 17:22N 42°15' W 070°29'716.5
2017-Oct-13 16:57N 42°16' W 070°38'919.5
2017-Oct-13 16:31N 42°21' W 070°48'1122.4
2017-Oct-13 16:00N 42°22' W 071°03'0 0.2
2017-Oct-13 15:30N 42°22' W 071°03'0 0.0
2017-Oct-13 15:00N 42°22' W 071°03'1 1.2
2017-Oct-13 14:30N 42°22' W 071°02'0 0.0
2017-Oct-13 14:01N 42°22' W 071°02'611.2
2017-Oct-13 13:31N 42°17' W 070°57'3 5.0
2017-Oct-13 13:01N 42°15' W 070°55'816.5
2017-Oct-13 12:30N 42°21' W 071°03'611.5
2017-Oct-13 12:01N 42°17' W 070°57'3 5.2
2017-Oct-13 11:30N 42°15' W 070°55'714.0
2017-Oct-13 11:01N 42°21' W 071°01'1 2.5
2017-Oct-13 10:31N 42°21' W 071°02'812.3
2017-Oct-13 09:51N 42°15' W 070°55'0 0.0
2017-Oct-12 23:56N 42°16' W 070°55'819.1
2017-Oct-12 23:30N 42°21' W 071°03'1 2.9
2017-Oct-12 23:00N 42°21' W 071°01'713.9
2017-Oct-12 22:30N 42°16' W 070°55'816.5
2017-Oct-12 22:01N 42°21' W 071°03'1 2.3
2017-Oct-12 21:31N 42°21' W 071°01'714.2
2017-Oct-12 20:59N 42°15' W 070°55'8 4.4
2017-Oct-12 19:06N 42°21' W 071°03'0 1.6
2017-Oct-12 19:00N 42°21' W 071°03'8 9.0
2017-Oct-12 18:05N 42°15' W 070°55'0 6.2
2017-Oct-12 18:00N 42°16' W 070°55'816.0
2017-Oct-12 17:30N 42°21' W 071°03'0 0.0
2017-Oct-12 17:00N 42°21' W 071°03'0 0.0
2017-Oct-12 16:30N 42°21' W 071°03'0 0.0
2017-Oct-12 16:00N 42°21' W 071°03'0 0.0
2017-Oct-12 15:30N 42°21' W 071°03'814.4
2017-Oct-12 14:56N 42°15' W 070°55'0 0.4
2017-Oct-12 14:31N 42°15' W 070°55'816.5
2017-Oct-12 14:00N 42°21' W 071°03'0 0.5
2017-Oct-12 13:30N 42°22' W 071°03'1 1.2
2017-Oct-12 13:00N 42°22' W 071°02'1 1.0
2017-Oct-12 12:30N 42°21' W 071°03'816.6
2017-Oct-12 12:00N 42°15' W 070°55'3 6.5
2017-Oct-12 11:31N 42°18' W 070°58'510.3
2017-Oct-12 11:01N 42°21' W 071°03'816.0
2017-Oct-12 10:29N 42°15' W 070°55'0 0.0
2017-Oct-12 10:00N 42°15' W 070°55'0 0.0
2017-Oct-12 09:31N 42°15' W 070°55'0 0.0
2017-Oct-12 00:21N 42°15' W 070°55'0 0.8
2017-Oct-12 00:00N 42°15' W 070°55'816.5
2017-Oct-11 23:30N 42°21' W 071°03'3 5.3
2017-Oct-11 23:01N 42°20' W 070°60'611.3
2017-Oct-11 22:30N 42°16' W 070°55'816.4
2017-Oct-11 22:00N 42°21' W 071°03'4 8.0
2017-Oct-11 21:31N 42°19' W 070°59'4 8.1
2017-Oct-11 21:00N 42°16' W 070°55'816.0
2017-Oct-11 20:30N 42°21' W 071°03'0 0.5
2017-Oct-11 20:00N 42°22' W 071°03'3 6.5
2017-Oct-11 19:31N 42°20' W 070°59'1529.8
2017-Oct-11 19:00N 42°15' W 070°40'1530.0
2017-Oct-11 18:30N 42°10' W 070°21'1 1.4
2017-Oct-11 17:32N 42°11' W 070°20'818.8
2017-Oct-11 17:07N 42°14' W 070°29'328.5
2017-Oct-11 17:00N 42°15' W 070°34'16 1.0
2017-Oct-10 23:53N 42°16' W 070°56'820.4
2017-Oct-10 23:30N 42°21' W 071°03'2 4.6
2017-Oct-10 23:00N 42°20' W 071°00'612.5
2017-Oct-10 22:30N 42°15' W 070°55'816.8
2017-Oct-10 22:01N 42°21' W 071°03'1 1.7
2017-Oct-10 21:31N 42°21' W 071°02'815.2
2017-Oct-10 21:00N 42°15' W 070°55'8 4.4
2017-Oct-10 19:10N 42°21' W 071°02'1 3.8
2017-Oct-10 19:00N 42°21' W 071°03'816.3
2017-Oct-10 18:30N 42°15' W 070°55'0 0.4
2017-Oct-10 17:59N 42°15' W 070°55'817.1
2017-Oct-10 17:31N 42°21' W 071°03'0 0.5
2017-Oct-10 17:00N 42°22' W 071°03'0 0.3
2017-Oct-10 16:30N 42°22' W 071°03'0 0.0
2017-Oct-10 16:00N 42°22' W 071°03'0 0.0
2017-Oct-10 15:30N 42°22' W 071°03'0 0.0
2017-Oct-10 15:00N 42°22' W 071°03'0 0.4
2017-Oct-10 14:00N 42°22' W 071°02'0 0.5
2017-Oct-10 13:31N 42°22' W 071°02'510.5
2017-Oct-10 13:01N 42°18' W 070°58'3 5.4
2017-Oct-10 12:29N 42°15' W 070°55'817.8
2017-Oct-10 12:00N 42°21' W 071°03'611.4
2017-Oct-10 11:30N 42°17' W 070°57'3 4.9
2017-Oct-10 10:58N 42°15' W 070°55'3 6.1
2017-Oct-10 10:29N 42°18' W 070°55'3 5.6
2017-Oct-10 09:58N 42°15' W 070°55'0 0.0
2017-Oct-10 00:03N 42°15' W 070°55'0 5.5
2017-Oct-10 00:00N 42°16' W 070°55'816.5
2017-Oct-09 23:31N 42°21' W 071°03'3 5.4
2017-Oct-09 23:00N 42°20' W 070°60'510.6
2017-Oct-09 22:31N 42°16' W 070°55'815.9
2017-Oct-09 22:01N 42°21' W 071°03'2 5.0
2017-Oct-09 21:31N 42°20' W 071°00'611.7
2017-Oct-09 21:01N 42°16' W 070°55'816.3
2017-Oct-09 20:30N 42°21' W 071°03'0 0.5
2017-Oct-09 20:00N 42°22' W 071°03'713.6
2017-Oct-09 19:31N 42°23' W 070°54'1428.7
2017-Oct-09 19:01N 42°33' W 070°40'1223.6
2017-Oct-09 18:30N 42°41' W 070°28'2 4.3
2017-Oct-09 18:00N 42°40' W 070°25'1 1.9
2017-Oct-09 17:31N 42°40' W 070°24'1427.5
2017-Oct-09 17:00N 42°31' W 070°38'1529.9
2017-Oct-09 16:31N 42°22' W 070°54'713.2
2017-Oct-09 16:00N 42°22' W 071°03'0 0.0
2017-Oct-09 15:30N 42°22' W 071°03'0 0.2
2017-Oct-09 15:00N 42°22' W 071°03'0 0.0
2017-Oct-09 14:30N 42°22' W 071°03'1 1.1
2017-Oct-09 14:00N 42°22' W 071°02'0 0.3
2017-Oct-09 13:30N 42°22' W 071°02'612.1
2017-Oct-09 13:01N 42°17' W 070°57'2 4.0
2017-Oct-09 12:30N 42°16' W 070°55'816.4
2017-Oct-09 12:00N 42°21' W 071°03'713.5
2017-Oct-09 11:31N 42°17' W 070°56'2 3.0
2017-Oct-09 10:58N 42°15' W 070°55'1 1.7
2017-Oct-09 10:30N 42°16' W 070°56'1 1.5
2017-Oct-09 09:54N 42°15' W 070°55'3 0.2
2017-Oct-08 18:30N 42°17' W 070°58'611.6
2017-Oct-08 18:01N 42°22' W 071°03'510.8
2017-Oct-08 17:31N 42°21' W 070°56'1427.0
2017-Oct-08 17:01N 42°29' W 070°41'1224.5
2017-Oct-08 16:31N 42°38' W 070°30'  
Track history (hours):
 
Tides and Currents Weather Stations Pressure Air Temp Water Temp Dewpoint Dewpoint Depression Visibility Wind Speed Wind Dir Waves Ship Positions

Asteria

Owner: Boston HarborCruises, Boston, MA. More information available from US FCC via Universal Licensing System and Coast Guard Vessel Documentation Center.

Last reported at 2017-Oct-18 16:29 UTC. Time now 2017-Oct-18 16:57 UTC.
Position N 42°19' W 070°51'.

Length 33 m; draft 2 m.

Type: High speed craft. MMSI: 367367470.

Date/timePositionNaut miles runAvg speedWind from/ knotsBaromVisibWave heightAir tempDewpointWater temp
2017-Oct-18 16:29N 42°19' W 070°51'919.4
2017-Oct-18 16:00N 42°22' W 071°03'0 0.0
2017-Oct-18 15:30N 42°22' W 071°03'0 0.0
2017-Oct-18 15:00N 42°22' W 071°03'0 0.5
2017-Oct-18 14:01N 42°21' W 071°02'611.2
2017-Oct-18 13:31N 42°17' W 070°57'2 4.6
2017-Oct-18 12:59N 42°15' W 070°55'817.4
2017-Oct-18 12:30N 42°21' W 071°03'611.1
2017-Oct-18 12:01N 42°17' W 070°58'3 4.7
2017-Oct-18 11:25N 42°15' W 070°55'615.7
2017-Oct-18 11:00N 42°20' W 071°00'2 4.0
2017-Oct-18 10:30N 42°21' W 071°03'810.0
2017-Oct-18 09:41N 42°15' W 070°55'0 0.0
2017-Oct-18 00:07N 42°15' W 070°55'0 0.2
2017-Oct-17 23:58N 42°15' W 070°55'818.2
2017-Oct-17 23:30N 42°21' W 071°03'2 4.2
2017-Oct-17 23:00N 42°20' W 071°00'612.3
2017-Oct-17 22:30N 42°15' W 070°55'816.9
2017-Oct-17 22:00N 42°21' W 071°03'2 4.9
2017-Oct-17 21:30N 42°20' W 071°00'611.8
2017-Oct-17 21:01N 42°16' W 070°55'816.3
2017-Oct-17 20:30N 42°21' W 071°03'1 1.7
2017-Oct-17 20:00N 42°22' W 071°03'1 1.4
2017-Oct-17 19:31N 42°22' W 071°03'0 0.4
2017-Oct-17 19:01N 42°21' W 071°03'8 8.4
2017-Oct-17 18:02N 42°15' W 070°55'0 6.0
2017-Oct-17 18:00N 42°15' W 070°55'816.7
2017-Oct-17 17:31N 42°21' W 071°03'0 0.0
2017-Oct-17 17:00N 42°21' W 071°03'0 0.5
2017-Oct-17 16:30N 42°22' W 071°03'2 3.4
2017-Oct-17 16:00N 42°21' W 071°01'2 3.4
2017-Oct-17 15:30N 42°22' W 071°03'0 0.0
2017-Oct-17 15:00N 42°22' W 071°03'0 0.0
2017-Oct-17 14:30N 42°22' W 071°03'0 0.0
2017-Oct-17 14:00N 42°22' W 071°03'0 0.0
2017-Oct-17 13:30N 42°22' W 071°03'1 1.3
2017-Oct-17 13:00N 42°22' W 071°02'0 0.6
2017-Oct-17 12:31N 42°21' W 071°02'811.5
2017-Oct-17 11:48N 42°15' W 070°55'515.9
2017-Oct-17 11:31N 42°19' W 070°59'3 6.6
2017-Oct-17 11:01N 42°21' W 071°02'8 9.7
2017-Oct-17 10:11N 42°15' W 070°55'0 0.1
2017-Oct-17 10:00N 42°15' W 070°55'0 0.0
2017-Oct-17 09:31N 42°15' W 070°55'0 0.0
2017-Oct-17 00:56N 42°16' W 070°55'818.5
2017-Oct-17 00:30N 42°21' W 071°03'2 4.2
2017-Oct-17 00:00N 42°20' W 071°00'612.8
2017-Oct-16 23:30N 42°15' W 070°55'816.8
2017-Oct-16 23:00N 42°21' W 071°03'2 4.4
2017-Oct-16 22:30N 42°20' W 071°00'612.2
2017-Oct-16 21:59N 42°15' W 070°55'613.6
2017-Oct-16 21:31N 42°20' W 071°01'2 3.7
2017-Oct-16 21:01N 42°21' W 071°03'3 5.9
2017-Oct-16 20:30N 42°19' W 070°60'510.2
2017-Oct-16 19:59N 42°15' W 070°55'817.4
2017-Oct-16 19:31N 42°21' W 071°03'1 1.8
2017-Oct-16 19:00N 42°22' W 071°03'1 1.6
2017-Oct-16 18:31N 42°21' W 071°03'0 0.5
2017-Oct-16 18:00N 42°22' W 071°03'0 0.0
2017-Oct-16 17:30N 42°22' W 071°03'1 1.1
2017-Oct-16 17:00N 42°22' W 071°02'1 1.1
2017-Oct-16 16:30N 42°22' W 071°03'1 1.3
2017-Oct-16 16:00N 42°22' W 071°02'0 0.9
2017-Oct-16 15:30N 42°21' W 071°03'813.8
2017-Oct-16 14:55N 42°15' W 070°55'0 0.4
2017-Oct-16 14:30N 42°15' W 070°55'3 3.5
2017-Oct-16 13:31N 42°18' W 070°58'4 6.6
2017-Oct-16 12:59N 42°15' W 070°55'817.7
2017-Oct-16 12:30N 42°21' W 071°03'612.4
2017-Oct-16 12:00N 42°17' W 070°57'2 4.3
2017-Oct-16 11:29N 42°15' W 070°55'612.0
2017-Oct-16 11:01N 42°20' W 070°60'3 5.0
2017-Oct-16 10:30N 42°21' W 071°03'813.6
2017-Oct-16 09:54N 42°15' W 070°55'0 0.1
2017-Oct-16 09:30N 42°15' W 070°55'1 0.1
2017-Oct-15 18:32N 42°16' W 070°56'130.1
2017-Oct-15 18:31N 42°17' W 070°56'714.1
2017-Oct-15 18:00N 42°22' W 071°03'4 8.7
2017-Oct-15 17:31N 42°20' W 070°57'1428.5
2017-Oct-15 17:00N 42°16' W 070°39'2 0.9
2017-Oct-15 14:53N 42°15' W 070°37'2023.1
2017-Oct-15 14:00N 42°22' W 071°03'0 0.1
2017-Oct-15 13:30N 42°22' W 071°03'0 0.0
2017-Oct-15 13:00N 42°22' W 071°03'2 4.5
2017-Oct-15 12:30N 42°20' W 071°00'612.7
2017-Oct-15 12:00N 42°15' W 070°55'0 0.0
2017-Oct-14 19:21N 42°15' W 070°55'618.8
2017-Oct-14 19:00N 42°20' W 071°01'2 4.2
2017-Oct-14 18:30N 42°22' W 071°03'0 0.2
2017-Oct-14 18:01N 42°22' W 071°03'612.0
2017-Oct-14 17:31N 42°19' W 070°55'1529.1
2017-Oct-14 16:59N 42°15' W 070°36'3 1.3
2017-Oct-14 15:01N 42°14' W 070°33'026.7
2017-Oct-14 15:00N 42°14' W 070°33'1428.7
2017-Oct-14 14:30N 42°19' W 070°51'918.8
2017-Oct-14 14:00N 42°22' W 071°03'0 0.0
2017-Oct-14 13:30N 42°22' W 071°03'0 0.0
2017-Oct-14 13:00N 42°22' W 071°03'1 1.3
2017-Oct-14 12:30N 42°22' W 071°02'5 9.3
2017-Oct-14 12:01N 42°18' W 070°58'4 7.2
2017-Oct-14 11:30N 42°15' W 070°55'0 0.0
2017-Oct-14 00:00N 42°15' W 070°55'815.0
2017-Oct-13 23:28N 42°21' W 071°03'3 7.4
2017-Oct-13 23:01N 42°19' W 070°60'5 9.6
2017-Oct-13 22:30N 42°16' W 070°55'816.0
2017-Oct-13 22:00N 42°21' W 071°03'611.5
2017-Oct-13 21:31N 42°17' W 070°57'2 4.8
2017-Oct-13 21:00N 42°16' W 070°55'816.1
2017-Oct-13 20:30N 42°21' W 071°03'0 0.4
2017-Oct-13 20:00N 42°22' W 071°03'918.6
2017-Oct-13 19:30N 42°19' W 070°51'1730.4
2017-Oct-13 18:58N 42°12' W 070°31'3 1.7
2017-Oct-13 17:22N 42°15' W 070°29'716.5
2017-Oct-13 16:57N 42°16' W 070°38'919.5
2017-Oct-13 16:31N 42°21' W 070°48'1122.4
2017-Oct-13 16:00N 42°22' W 071°03'0 0.2
2017-Oct-13 15:30N 42°22' W 071°03'0 0.0
2017-Oct-13 15:00N 42°22' W 071°03'1 1.2
2017-Oct-13 14:30N 42°22' W 071°02'0 0.0
2017-Oct-13 14:01N 42°22' W 071°02'611.2
2017-Oct-13 13:31N 42°17' W 070°57'3 5.0
2017-Oct-13 13:01N 42°15' W 070°55'816.5
2017-Oct-13 12:30N 42°21' W 071°03'611.5
2017-Oct-13 12:01N 42°17' W 070°57'3 5.2
2017-Oct-13 11:30N 42°15' W 070°55'714.0
2017-Oct-13 11:01N 42°21' W 071°01'1 2.5
2017-Oct-13 10:31N 42°21' W 071°02'812.3
2017-Oct-13 09:51N 42°15' W 070°55'0 0.0
2017-Oct-12 23:56N 42°16' W 070°55'819.1
2017-Oct-12 23:30N 42°21' W 071°03'1 2.9
2017-Oct-12 23:00N 42°21' W 071°01'713.9
2017-Oct-12 22:30N 42°16' W 070°55'816.5
2017-Oct-12 22:01N 42°21' W 071°03'1 2.3
2017-Oct-12 21:31N 42°21' W 071°01'714.2
2017-Oct-12 20:59N 42°15' W 070°55'8 4.4
2017-Oct-12 19:06N 42°21' W 071°03'0 1.6
2017-Oct-12 19:00N 42°21' W 071°03'8 9.0
2017-Oct-12 18:05N 42°15' W 070°55'0 6.2
2017-Oct-12 18:00N 42°16' W 070°55'816.0
2017-Oct-12 17:30N 42°21' W 071°03'0 0.0
2017-Oct-12 17:00N 42°21' W 071°03'0 0.0
2017-Oct-12 16:30N 42°21' W 071°03'0 0.0
2017-Oct-12 16:00N 42°21' W 071°03'0 0.0
2017-Oct-12 15:30N 42°21' W 071°03'814.4
2017-Oct-12 14:56N 42°15' W 070°55'0 0.4
2017-Oct-12 14:31N 42°15' W 070°55'816.5
2017-Oct-12 14:00N 42°21' W 071°03'0 0.5
2017-Oct-12 13:30N 42°22' W 071°03'1 1.2
2017-Oct-12 13:00N 42°22' W 071°02'1 1.0
2017-Oct-12 12:30N 42°21' W 071°03'816.6
2017-Oct-12 12:00N 42°15' W 070°55'3 6.5
2017-Oct-12 11:31N 42°18' W 070°58'510.3
2017-Oct-12 11:01N 42°21' W 071°03'816.0
2017-Oct-12 10:29N 42°15' W 070°55'0 0.0
2017-Oct-12 10:00N 42°15' W 070°55'0 0.0
2017-Oct-12 09:31N 42°15' W 070°55'0 0.0
2017-Oct-12 00:21N 42°15' W 070°55'0 0.8
2017-Oct-12 00:00N 42°15' W 070°55'816.5
2017-Oct-11 23:30N 42°21' W 071°03'3 5.3
2017-Oct-11 23:01N 42°20' W 070°60'611.3
2017-Oct-11 22:30N 42°16' W 070°55'816.4
2017-Oct-11 22:00N 42°21' W 071°03'4 8.0
2017-Oct-11 21:31N 42°19' W 070°59'4 8.1
2017-Oct-11 21:00N 42°16' W 070°55'816.0
2017-Oct-11 20:30N 42°21' W 071°03'0 0.5
2017-Oct-11 20:00N 42°22' W 071°03'3 6.5
2017-Oct-11 19:31N 42°20' W 070°59'1529.8
2017-Oct-11 19:00N 42°15' W 070°40'1530.0
2017-Oct-11 18:30N 42°10' W 070°21'1 1.4
2017-Oct-11 17:32N 42°11' W 070°20'818.8
2017-Oct-11 17:07N 42°14' W 070°29'328.5
2017-Oct-11 17:00N 42°15' W 070°34'16 1.0
2017-Oct-10 23:53N 42°16' W 070°56'820.4
2017-Oct-10 23:30N 42°21' W 071°03'2 4.6
2017-Oct-10 23:00N 42°20' W 071°00'612.5
2017-Oct-10 22:30N 42°15' W 070°55'816.8
2017-Oct-10 22:01N 42°21' W 071°03'1 1.7
2017-Oct-10 21:31N 42°21' W 071°02'815.2
2017-Oct-10 21:00N 42°15' W 070°55'8 4.4
2017-Oct-10 19:10N 42°21' W 071°02'1 3.8
2017-Oct-10 19:00N 42°21' W 071°03'816.3
2017-Oct-10 18:30N 42°15' W 070°55'0 0.4
2017-Oct-10 17:59N 42°15' W 070°55'817.1
2017-Oct-10 17:31N 42°21' W 071°03'0 0.5
2017-Oct-10 17:00N 42°22' W 071°03'0 0.3
2017-Oct-10 16:30N 42°22' W 071°03'0 0.0
2017-Oct-10 16:00N 42°22' W 071°03'0 0.0
2017-Oct-10 15:30N 42°22' W 071°03'0 0.0
2017-Oct-10 15:00N 42°22' W 071°03'0 0.4
2017-Oct-10 14:00N 42°22' W 071°02'0 0.5
2017-Oct-10 13:31N 42°22' W 071°02'510.5
2017-Oct-10 13:01N 42°18' W 070°58'3 5.4
2017-Oct-10 12:29N 42°15' W 070°55'817.8
2017-Oct-10 12:00N 42°21' W 071°03'611.4
2017-Oct-10 11:30N 42°17' W 070°57'3 4.9
2017-Oct-10 10:58N 42°15' W 070°55'3 6.1
2017-Oct-10 10:29N 42°18' W 070°55'3 5.6
2017-Oct-10 09:58N 42°15' W 070°55'0 0.0
2017-Oct-10 00:03N 42°15' W 070°55'0 5.5
2017-Oct-10 00:00N 42°16' W 070°55'816.5
2017-Oct-09 23:31N 42°21' W 071°03'3 5.4
2017-Oct-09 23:00N 42°20' W 070°60'510.6
2017-Oct-09 22:31N 42°16' W 070°55'815.9
2017-Oct-09 22:01N 42°21' W 071°03'2 5.0
2017-Oct-09 21:31N 42°20' W 071°00'611.7
2017-Oct-09 21:01N 42°16' W 070°55'816.3
2017-Oct-09 20:30N 42°21' W 071°03'0 0.5
2017-Oct-09 20:00N 42°22' W 071°03'713.6
2017-Oct-09 19:31N 42°23' W 070°54'1428.7
2017-Oct-09 19:01N 42°33' W 070°40'1223.6
2017-Oct-09 18:30N 42°41' W 070°28'2 4.3
2017-Oct-09 18:00N 42°40' W 070°25'1 1.9
2017-Oct-09 17:31N 42°40' W 070°24'1427.5
2017-Oct-09 17:00N 42°31' W 070°38'1529.9
2017-Oct-09 16:31N 42°22' W 070°54'713.2
2017-Oct-09 16:00N 42°22' W 071°03'0 0.0
2017-Oct-09 15:30N 42°22' W 071°03'0 0.2
2017-Oct-09 15:00N 42°22' W 071°03'0 0.0
2017-Oct-09 14:30N 42°22' W 071°03'1 1.1
2017-Oct-09 14:00N 42°22' W 071°02'0 0.3
2017-Oct-09 13:30N 42°22' W 071°02'612.1
2017-Oct-09 13:01N 42°17' W 070°57'2 4.0
2017-Oct-09 12:30N 42°16' W 070°55'816.4
2017-Oct-09 12:00N 42°21' W 071°03'713.5
2017-Oct-09 11:31N 42°17' W 070°56'2 3.0
2017-Oct-09 10:58N 42°15' W 070°55'1 1.7
2017-Oct-09 10:30N 42°16' W 070°56'1 1.5
2017-Oct-09 09:54N 42°15' W 070°55'3 0.2
2017-Oct-08 18:30N 42°17' W 070°58'611.6
2017-Oct-08 18:01N 42°22' W 071°03'510.8
2017-Oct-08 17:31N 42°21' W 070°56'1427.0
2017-Oct-08 17:01N 42°29' W 070°41'1224.5
2017-Oct-08 16:31N 42°38' W 070°30'  

Dump ship's entire track history